James M Cox Dayton International Airport
KDAY : now visible

Airfield :











YOU CAN JOIN US ON...

 
LOGIN :

Register | Disclaimer

   EN    FR    IT 

 









Legend :    VFR   Marginal VFR   IFR   Intensive IFR   Very Intensive IFR
Visi :
Ceiling :
>= 8 km
>= 3000ft
5 to 8 km
1000 to 3000 ft
1500m to 5 km
500 to 1000 ft
800 to 1500m
200 to 500 ft
< 800m
< 200 ft
Symbols :   Thunderstorms  Fog  Heavy snow  Heavy precipitations  Wind > 20 kt






- Airport Elevation : 1009 ft
- IATA code : DAY


KDAY - James M Cox Dayton International

CURRENT METAR :
  • 180556Z 21004KT 10SM FEW250 19/12 A3002 RMK AO2 SLP158 T01940122 10278 20189 55003 $

EXPIRED METARs :
  • 180456Z 19007KT 10SM FEW250 22/12 A3001 RMK AO2 SLP152 T02220122 402940139 $
  • 180356Z 20006KT 10SM CLR 23/12 A3002 RMK AO2 SLP158 T02280117 $

TAF KDAY
Valid from the 18 at 06:00 until the 19 at 06:00 UTC


180522Z 1806/1906 19008KT P6SM BKN250
FM181300 20012KT P6SM SCT040 BKN250
FM181600 21014G26KT P6SM VCSH SCT050 BKN200
FM182100 22014G20KT P6SM -SHRA VCTS OVC050CB
KZID FIR / North America



MET'MAP, your aeronautical weather chart ! - Copyright ORBIFLY December 2007 - Disclaimer

ORBIFLY MET'MAP TEAM :

Programming & Development : Alexandra Zaïnal
Concept & original design : Baudouin d'Aumeries
Assistance for programming : Marc-Olivier Méhu
Technical & hardware support : Manuel Goepfert

Contact : metmap@orbifly.com




SOURCES & CREDITS :

   NOAA       Earth
Advisory